Terminal Aerodrome Forecast
Issued by NWS

Home | Current Version | Previous Version | Text Only | Print | Product List | Glossary On
Versions: 1 2 3 4 5 6 7 8 9 10 11 12 13 14
000
FTUS45 KRIW 191700
TAFCPR
TAF
KCPR 191739Z 1918/2018 36008KT P6SM SCT060
     FM200100 01006KT P6SM BKN070
     FM200700 VRB06KT P6SM BKN070=

USA.gov is the U.S. government's official web portal to all federal, state and local government web resources and services.